createdAt,value
2019-04-04T00:01:01.453Z,1.35
2019-04-04T00:03:32.309Z,1.28
2019-04-04T00:06:03.046Z,1.23
2019-04-04T00:08:33.717Z,1.21
2019-04-04T00:11:06.056Z,1.27
2019-04-04T00:13:37.161Z,1.33
2019-04-04T00:16:07.329Z,1.48
2019-04-04T00:18:37.730Z,1.55
2019-04-04T00:21:07.813Z,1.66
2019-04-04T00:23:38.588Z,1.79
2019-04-04T00:26:10.849Z,1.72
2019-04-04T00:28:41.891Z,1.62
2019-04-04T00:31:12.645Z,1.60
2019-04-04T00:33:43.285Z,1.59
2019-04-04T00:36:14.150Z,1.51
2019-04-04T00:38:45.009Z,1.48
2019-04-04T00:41:15.763Z,1.33
2019-04-04T00:43:47.436Z,1.60
2019-04-04T00:46:18.188Z,1.73
2019-04-04T00:48:49.043Z,1.57
2019-04-04T00:51:19.904Z,1.40
2019-04-04T00:53:50.654Z,1.18
2019-04-04T00:56:21.288Z,1.03
2019-04-04T00:58:52.580Z,1.24
2019-04-04T01:01:26.041Z,1.30
2019-04-04T01:03:55.083Z,1.24
2019-04-04T01:06:25.053Z,0.97
2019-04-04T01:08:55.584Z,0.84
2019-04-04T01:11:26.339Z,0.67
2019-04-04T01:13:57.858Z,0.56
2019-04-04T01:16:28.972Z,0.43
2019-04-04T01:18:59.830Z,0.33
2019-04-04T01:21:30.590Z,0.34
2019-04-04T01:24:01.235Z,0.13
2019-04-04T01:26:34.860Z,-0.13
2019-04-04T01:29:05.737Z,-0.12
2019-04-04T01:31:37.177Z,-0.31
2019-04-04T01:34:07.727Z,-0.43
2019-04-04T01:36:38.584Z,-0.48
2019-04-04T01:39:09.321Z,-0.57
2019-04-04T01:41:39.971Z,-0.66
2019-04-04T01:44:11.314Z,-0.63
2019-04-04T01:46:44.018Z,-0.84
2019-04-04T01:49:14.295Z,-0.89
2019-04-04T01:51:45.153Z,-1.00
2019-04-04T01:54:16.020Z,-0.94
2019-04-04T01:56:46.762Z,-0.89
2019-04-04T01:59:17.396Z,-0.88
2019-04-04T02:01:47.481Z,-0.97
2019-04-04T02:04:17.998Z,-1.08
2019-04-04T02:06:48.650Z,-1.13
2019-04-04T02:09:19.512Z,-1.17
2019-04-04T02:11:50.261Z,-1.25
2019-04-04T02:14:21.018Z,-1.30
2019-04-04T02:16:51.711Z,-1.31
2019-04-04T02:19:24.588Z,-1.42
2019-04-04T02:21:54.811Z,-1.49
2019-04-04T02:24:25.578Z,-1.48
2019-04-04T02:26:56.215Z,-1.48
2019-04-04T02:29:26.853Z,-1.53
2019-04-04T02:31:59.267Z,-1.54
2019-04-04T02:34:29.896Z,-1.58
2019-04-04T02:37:00.685Z,-1.45
2019-04-04T02:39:32.706Z,-1.41
2019-04-04T02:42:03.704Z,-1.46
2019-04-04T02:44:35.404Z,-1.50
2019-04-04T02:47:06.339Z,-1.48
2019-04-04T02:49:37.094Z,-1.50
2019-04-04T02:52:07.759Z,-1.59
2019-04-04T02:54:38.393Z,-1.59
2019-04-04T02:57:09.637Z,-1.56
2019-04-04T02:59:40.415Z,-1.64
2019-04-04T03:02:11.066Z,-1.64
2019-04-04T03:04:45.683Z,-1.74
2019-04-04T03:07:13.885Z,-1.73
2019-04-04T03:09:44.672Z,-1.75
2019-04-04T03:12:15.401Z,-1.74
2019-04-04T03:14:46.061Z,-1.66
2019-04-04T03:17:16.921Z,-1.58
2019-04-04T03:19:47.692Z,-1.39
2019-04-04T03:22:18.525Z,-1.30
2019-04-04T03:24:49.385Z,-1.43
2019-04-04T03:27:25.791Z,-1.41
2019-04-04T03:29:52.335Z,-1.38
2019-04-04T03:32:23.081Z,-1.32
2019-04-04T03:34:53.710Z,-1.24
2019-04-04T03:37:24.387Z,-1.23
2019-04-04T03:39:55.259Z,-1.10
2019-04-04T03:42:25.988Z,-1.13
2019-04-04T03:44:57.763Z,-1.28
2019-04-04T03:47:28.622Z,-1.11
2019-04-04T03:49:59.476Z,-1.08
2019-04-04T03:52:29.323Z,-0.94
2019-04-04T03:54:59.867Z,-0.52
2019-04-04T03:57:30.915Z,-0.52
2019-04-04T04:00:05.693Z,-0.42
2019-04-04T04:02:33.451Z,-0.21
2019-04-04T04:05:04.314Z,-0.03
2019-04-04T04:07:35.169Z,0.26
2019-04-04T04:10:06.622Z,0.48
2019-04-04T04:12:37.475Z,0.64
2019-04-04T04:15:08.346Z,0.87
2019-04-04T04:17:39.098Z,1.08
2019-04-04T04:20:09.746Z,1.34
2019-04-04T04:22:39.808Z,1.59
2019-04-04T04:25:10.851Z,1.94
2019-04-04T04:27:41.704Z,2.16
2019-04-04T04:30:14.297Z,2.48
2019-04-04T04:32:44.749Z,2.81
2019-04-04T04:35:15.600Z,2.99
2019-04-04T04:37:46.342Z,3.19
2019-04-04T04:40:17.111Z,3.37
2019-04-04T04:42:47.846Z,3.72
2019-04-04T04:45:19.536Z,3.82
2019-04-04T04:47:50.377Z,4.08
2019-04-04T04:50:21.147Z,4.26
2019-04-04T04:52:51.210Z,4.41
2019-04-04T04:55:21.731Z,4.58
2019-04-04T04:57:51.684Z,4.72
2019-04-04T05:00:22.217Z,4.64
2019-04-04T05:02:53.766Z,4.82
2019-04-04T05:05:24.646Z,4.78
2019-04-04T05:07:55.359Z,4.87
2019-04-04T05:10:26.238Z,4.96
2019-04-04T05:12:57.013Z,5.00
2019-04-04T05:15:27.644Z,5.03
2019-04-04T05:17:57.824Z,5.24
2019-04-04T05:20:29.833Z,5.29
2019-04-04T05:23:00.434Z,5.23
2019-04-04T05:25:31.311Z,4.75
2019-04-04T05:28:02.129Z,4.91
2019-04-04T05:30:32.790Z,5.19
2019-04-04T05:33:02.981Z,5.31
2019-04-04T05:35:33.993Z,5.47
2019-04-04T05:38:07.436Z,5.09
2019-04-04T05:40:36.742Z,5.15
2019-04-04T05:43:07.587Z,5.38
2019-04-04T05:45:39.269Z,5.50
2019-04-04T05:48:10.221Z,5.76
2019-04-04T05:50:43.315Z,5.81
2019-04-04T05:53:13.121Z,5.60
2019-04-04T05:55:44.073Z,5.61
2019-04-04T05:58:14.855Z,5.88
2019-04-04T06:00:46.840Z,5.90
2019-04-04T06:03:17.516Z,5.77
2019-04-04T06:05:48.361Z,5.65
2019-04-04T06:08:19.123Z,5.78
2019-04-04T06:10:50.099Z,5.95
2019-04-04T06:13:22.331Z,6.34
2019-04-04T06:15:52.809Z,6.55
2019-04-04T06:18:23.563Z,6.35
2019-04-04T06:20:54.214Z,6.75
2019-04-04T06:23:25.741Z,6.91
2019-04-04T06:25:56.419Z,7.02
2019-04-04T06:28:26.394Z,7.29
2019-04-04T06:30:56.801Z,6.82
2019-04-04T06:33:28.479Z,7.08
2019-04-04T06:36:07.823Z,7.35
2019-04-04T06:38:39.820Z,7.19
2019-04-04T06:41:10.351Z,7.31
2019-04-04T06:43:41.713Z,7.24
2019-04-04T06:46:13.719Z,7.53
2019-04-04T06:48:44.470Z,7.63
2019-04-04T06:51:15.326Z,7.77
2019-04-04T06:53:47.018Z,8.07
2019-04-04T06:56:17.757Z,8.10
2019-04-04T06:58:48.494Z,8.35
2019-04-04T07:01:21.883Z,8.35
2019-04-04T07:03:52.668Z,8.36
2019-04-04T07:06:23.328Z,8.55
2019-04-04T07:08:53.980Z,8.55
2019-04-04T07:11:24.834Z,8.57
2019-04-04T07:13:58.752Z,8.23
2019-04-04T07:16:27.655Z,8.41
2019-04-04T07:18:57.622Z,8.69
2019-04-04T07:21:28.161Z,8.66
2019-04-04T07:23:59.513Z,8.72
2019-04-04T07:26:30.465Z,9.13
2019-04-04T07:29:01.218Z,9.26
2019-04-04T07:31:34.019Z,9.03
2019-04-04T07:34:04.074Z,9.37
2019-04-04T07:36:34.816Z,9.43
2019-04-04T07:39:06.232Z,9.40
2019-04-04T07:41:40.085Z,9.23
2019-04-04T07:44:08.709Z,9.59
2019-04-04T07:46:41.295Z,9.80
2019-04-04T07:49:12.791Z,9.71
2019-04-04T07:51:43.544Z,9.99
2019-04-04T07:54:14.279Z,10.04
2019-04-04T07:56:48.650Z,10.19
2019-04-04T07:59:17.239Z,10.14
2019-04-04T08:01:51.443Z,10.36
2019-04-04T08:04:21.817Z,10.48
2019-04-04T08:06:53.433Z,10.60
2019-04-04T08:09:26.241Z,10.63
2019-04-04T08:11:56.120Z,10.22
2019-04-04T08:14:26.874Z,10.79
2019-04-04T08:16:57.607Z,10.51
2019-04-04T08:19:28.180Z,10.33
2019-04-04T08:21:59.038Z,10.36
2019-04-04T08:24:29.887Z,10.63
2019-04-04T08:27:00.747Z,10.68
2019-04-04T08:29:33.237Z,10.68
2019-04-04T08:32:03.582Z,10.97
2019-04-04T08:34:36.460Z,11.19
2019-04-04T08:37:06.418Z,10.52
2019-04-04T08:39:37.259Z,11.20
2019-04-04T08:42:08.132Z,10.99
2019-04-04T08:44:38.887Z,10.77
2019-04-04T08:47:09.843Z,10.69
2019-04-04T08:49:40.803Z,10.58
2019-04-04T08:52:16.865Z,10.78
2019-04-04T08:54:43.535Z,10.64
2019-04-04T08:57:14.289Z,10.67
2019-04-04T08:59:45.656Z,11.07
2019-04-04T09:02:16.411Z,11.16
2019-04-04T09:04:47.061Z,11.50
2019-04-04T09:07:17.596Z,11.27
2019-04-04T09:09:48.562Z,11.61
2019-04-04T09:12:19.323Z,11.94
2019-04-04T09:14:50.080Z,11.70
2019-04-04T09:17:20.731Z,11.65
2019-04-04T09:19:51.585Z,11.71
2019-04-04T09:22:24.088Z,11.85
2019-04-04T09:24:54.333Z,11.84
2019-04-04T09:27:25.083Z,10.62
2019-04-04T09:29:55.708Z,11.39
2019-04-04T09:32:26.591Z,11.93
2019-04-04T09:34:57.335Z,11.08
2019-04-04T09:37:27.972Z,11.59
2019-04-04T09:39:58.725Z,11.86
2019-04-04T09:42:29.377Z,11.90
2019-04-04T09:45:00.250Z,12.25
2019-04-04T09:47:31.910Z,12.29
2019-04-04T09:50:02.882Z,12.20
2019-04-04T09:52:33.635Z,12.57
2019-04-04T09:55:05.857Z,12.28
2019-04-04T09:57:36.677Z,13.18
2019-04-04T10:00:15.903Z,12.98
2019-04-04T10:02:46.573Z,12.30
2019-04-04T10:05:17.431Z,12.48
2019-04-04T10:07:48.166Z,12.54
2019-04-04T10:10:18.919Z,12.62
2019-04-04T10:12:49.587Z,13.15
2019-04-04T10:15:20.444Z,12.55
2019-04-04T10:17:51.196Z,12.46
2019-04-04T10:20:21.950Z,11.52
2019-04-04T10:22:52.606Z,12.01
2019-04-04T10:25:23.354Z,12.35
2019-04-04T10:27:54.210Z,12.40
2019-04-04T10:30:24.949Z,12.40
2019-04-04T10:32:55.600Z,12.18
2019-04-04T10:35:26.456Z,12.02
2019-04-04T10:37:57.331Z,12.44
2019-04-04T10:40:28.087Z,12.95
2019-04-04T10:42:58.739Z,12.14
2019-04-04T10:45:29.472Z,12.36
2019-04-04T10:48:00.344Z,12.58
2019-04-04T10:50:31.203Z,12.50
2019-04-04T10:53:01.841Z,13.11
2019-04-04T10:55:32.504Z,12.55
2019-04-04T10:58:03.361Z,12.64
2019-04-04T11:00:34.198Z,13.32
2019-04-04T11:03:04.975Z,13.09
2019-04-04T11:05:35.620Z,13.14
2019-04-04T11:08:06.480Z,13.51
2019-04-04T11:10:37.336Z,13.25
2019-04-04T11:13:08.086Z,13.24
2019-04-04T11:15:38.739Z,13.62
2019-04-04T11:18:09.599Z,14.01
2019-04-04T11:20:40.452Z,13.91
2019-04-04T11:23:11.203Z,13.56
2019-04-04T11:25:41.841Z,13.63
2019-04-04T11:28:12.493Z,13.51
2019-04-04T11:30:43.369Z,13.18
2019-04-04T11:33:13.999Z,12.59
2019-04-04T11:35:44.769Z,12.72
2019-04-04T11:38:15.402Z,13.45
2019-04-04T11:40:46.280Z,13.46
2019-04-04T11:43:17.134Z,13.78
2019-04-04T11:45:47.888Z,13.45
2019-04-04T11:48:18.522Z,13.51
2019-04-04T11:50:49.482Z,13.42
2019-04-04T11:53:20.235Z,14.08
2019-04-04T11:55:51.003Z,14.23
2019-04-04T11:58:21.643Z,13.64
2019-04-04T12:00:59.978Z,13.15
2019-04-04T12:03:30.716Z,13.15
2019-04-04T12:06:01.472Z,13.07
2019-04-04T12:08:32.239Z,12.67
2019-04-04T12:11:02.893Z,13.34
2019-04-04T12:13:33.755Z,13.51
2019-04-04T12:16:04.591Z,12.96
2019-04-04T12:18:35.359Z,13.25
2019-04-04T12:21:06.013Z,13.32
2019-04-04T12:23:36.864Z,13.27
2019-04-04T12:26:07.607Z,13.24
2019-04-04T12:28:38.372Z,12.74
2019-04-04T12:31:09.027Z,12.93
2019-04-04T12:33:39.557Z,13.52
2019-04-04T12:36:10.430Z,13.42
2019-04-04T12:38:41.285Z,13.88
2019-04-04T12:41:12.022Z,13.82
2019-04-04T12:43:42.774Z,14.22
2019-04-04T12:46:13.632Z,13.67
2019-04-04T12:48:45.307Z,13.86
2019-04-04T12:51:16.286Z,13.72
2019-04-04T12:53:46.920Z,13.76
2019-04-04T12:56:17.772Z,13.22
2019-04-04T12:58:48.527Z,12.75
2019-04-04T13:01:21.281Z,12.70
2019-04-04T13:03:51.384Z,13.51
2019-04-04T13:06:22.118Z,13.62
2019-04-04T13:08:52.873Z,13.43
2019-04-04T13:11:23.647Z,13.57
2019-04-04T13:13:54.278Z,13.37
2019-04-04T13:16:24.946Z,13.45
2019-04-04T13:18:55.680Z,13.44
2019-04-04T13:21:26.556Z,13.37
2019-04-04T13:23:57.189Z,13.05
2019-04-04T13:26:27.963Z,12.56
2019-04-04T13:28:58.612Z,12.85
2019-04-04T13:31:29.450Z,13.19
2019-04-04T13:34:00.235Z,12.94
2019-04-04T13:36:30.975Z,13.14
2019-04-04T13:39:01.628Z,12.98
2019-04-04T13:41:32.466Z,13.18
2019-04-04T13:44:03.238Z,12.88
2019-04-04T13:46:33.989Z,13.19
2019-04-04T13:49:05.562Z,12.81
2019-04-04T13:51:36.419Z,13.27
2019-04-04T13:54:07.072Z,13.16
2019-04-04T13:56:37.928Z,12.88
2019-04-04T13:59:08.783Z,12.78
2019-04-04T14:01:42.011Z,12.82
2019-04-04T14:04:11.618Z,12.78
2019-04-04T14:06:42.474Z,12.72
2019-04-04T14:09:13.330Z,12.73
2019-04-04T14:11:44.087Z,12.81
2019-04-04T14:14:14.723Z,12.78
2019-04-04T14:16:45.596Z,12.81
2019-04-04T14:19:16.449Z,13.69
2019-04-04T14:21:47.185Z,15.65
2019-04-04T14:24:17.854Z,17.19
2019-04-04T14:26:48.715Z,17.09
2019-04-04T14:29:27.269Z,17.33
2019-04-04T14:31:51.650Z,16.34
2019-04-04T14:34:22.286Z,15.20
2019-04-04T14:36:52.947Z,14.07
2019-04-04T14:39:23.691Z,13.39
2019-04-04T14:41:54.547Z,13.39
2019-04-04T14:44:25.333Z,12.47
2019-04-04T14:46:55.954Z,12.08
2019-04-04T14:49:27.847Z,11.98
2019-04-04T14:51:58.791Z,11.74
2019-04-04T14:54:29.967Z,11.56
2019-04-04T14:57:00.716Z,11.50
2019-04-04T14:59:31.585Z,11.40
2019-04-04T15:02:02.440Z,11.31
2019-04-04T15:04:33.069Z,11.24
2019-04-04T15:07:03.039Z,11.16
2019-04-04T15:09:33.577Z,11.05
2019-04-04T15:12:04.313Z,11.05
2019-04-04T15:14:34.979Z,11.10
2019-04-04T15:17:05.836Z,11.13
2019-04-04T15:19:36.585Z,11.07
2019-04-04T15:22:07.343Z,10.92
2019-04-04T15:24:37.974Z,10.91
2019-04-04T15:27:08.054Z,10.82
2019-04-04T15:29:38.579Z,10.75
2019-04-04T15:32:09.213Z,10.72
2019-04-04T15:34:39.181Z,11.00
2019-04-04T15:37:09.822Z,11.12
2019-04-04T15:39:40.389Z,11.15
2019-04-04T15:42:10.612Z,10.87
2019-04-04T15:44:41.352Z,10.54
2019-04-04T15:47:12.017Z,10.39
2019-04-04T15:49:43.890Z,10.21
2019-04-04T15:52:14.746Z,10.14
2019-04-04T15:54:45.607Z,10.10
2019-04-04T15:57:16.363Z,9.95
2019-04-04T15:59:47.014Z,9.90
2019-04-04T16:02:19.384Z,9.83
2019-04-04T16:04:50.256Z,9.77
2019-04-04T16:07:20.911Z,9.63
2019-04-04T16:09:50.871Z,9.46
2019-04-04T16:12:21.387Z,9.42
2019-04-04T16:14:52.148Z,9.30
2019-04-04T16:17:22.907Z,9.27
2019-04-04T16:19:53.769Z,9.33
2019-04-04T16:22:26.164Z,9.27
2019-04-04T16:24:58.253Z,9.18
2019-04-04T16:27:29.092Z,9.18
2019-04-04T16:29:59.045Z,9.09
2019-04-04T16:32:29.563Z,9.05
2019-04-04T16:35:02.172Z,8.83
2019-04-04T16:37:33.028Z,8.66
2019-04-04T16:40:09.260Z,8.32
2019-04-04T16:42:35.558Z,7.94
2019-04-04T16:45:07.690Z,7.67
2019-04-04T16:47:38.178Z,7.52
2019-04-04T16:50:09.050Z,7.38
2019-04-04T16:52:39.904Z,7.19
2019-04-04T16:55:10.643Z,6.98
2019-04-04T16:57:43.294Z,6.79
2019-04-04T17:00:13.700Z,6.57
2019-04-04T17:02:43.660Z,6.43
2019-04-04T17:05:14.084Z,6.32
2019-04-04T17:07:46.455Z,6.15
2019-04-04T17:10:17.020Z,6.25
2019-04-04T17:12:47.877Z,6.01
2019-04-04T17:15:18.620Z,5.81
2019-04-04T17:17:49.387Z,5.63
2019-04-04T17:20:20.900Z,5.49
2019-04-04T17:22:51.608Z,5.39
2019-04-04T17:25:21.558Z,5.28
2019-04-04T17:27:52.075Z,5.15
2019-04-04T17:30:24.201Z,5.08
2019-04-04T17:32:55.502Z,5.17
2019-04-04T17:35:26.802Z,5.00
2019-04-04T17:37:57.739Z,4.83
2019-04-04T17:40:28.627Z,4.71
2019-04-04T17:42:59.379Z,4.56
2019-04-04T17:45:30.147Z,4.51
2019-04-04T17:48:01.284Z,4.40
2019-04-04T17:50:33.356Z,4.30
2019-04-04T17:53:04.522Z,4.20
2019-04-04T17:55:35.644Z,4.06
2019-04-04T17:58:06.363Z,4.01
2019-04-04T18:00:37.214Z,3.98
2019-04-04T18:03:07.947Z,3.85
2019-04-04T18:05:38.229Z,3.79
2019-04-04T18:08:08.740Z,3.83
2019-04-04T18:10:41.789Z,3.71
2019-04-04T18:13:18.224Z,3.62
2019-04-04T18:15:49.096Z,3.56
2019-04-04T18:18:20.575Z,3.48
2019-04-04T18:20:51.207Z,3.45
2019-04-04T18:23:21.066Z,3.34
2019-04-04T18:25:51.606Z,3.36
2019-04-04T18:28:22.462Z,3.34
2019-04-04T18:30:53.313Z,3.33
2019-04-04T18:33:23.060Z,3.24
2019-04-04T18:35:53.475Z,3.15
2019-04-04T18:38:24.350Z,3.17
2019-04-04T18:40:55.208Z,3.04
2019-04-04T18:43:26.063Z,3.02
2019-04-04T18:45:56.983Z,3.16
2019-04-04T18:48:27.681Z,3.17
2019-04-04T18:50:59.358Z,2.96
2019-04-04T18:53:30.429Z,2.83
2019-04-04T18:56:01.364Z,2.71
2019-04-04T18:58:45.619Z,2.54
2019-04-04T19:01:18.114Z,2.54
2019-04-04T19:03:48.971Z,2.38
2019-04-04T19:06:19.728Z,2.34
2019-04-04T19:08:50.910Z,2.40
2019-04-04T19:11:22.047Z,2.54
2019-04-04T19:13:52.907Z,2.46
2019-04-04T19:16:23.637Z,2.39
2019-04-04T19:18:53.867Z,2.39
2019-04-04T19:21:24.141Z,2.44
2019-04-04T19:23:56.199Z,2.80
2019-04-04T19:26:29.210Z,2.62
2019-04-04T19:29:00.192Z,2.58
2019-04-04T19:31:30.923Z,2.40
2019-04-04T19:34:01.102Z,2.25
2019-04-04T19:36:32.759Z,2.11
2019-04-04T19:39:04.837Z,2.01
2019-04-04T19:41:35.694Z,1.91
2019-04-04T19:44:06.331Z,1.87
2019-04-04T19:46:37.424Z,1.91
2019-04-04T19:49:07.959Z,1.92
2019-04-04T19:51:39.939Z,1.80
2019-04-04T19:54:10.876Z,1.80
2019-04-04T19:56:40.947Z,1.65
2019-04-04T19:59:11.466Z,1.35
2019-04-04T20:01:42.341Z,1.30
2019-04-04T20:04:13.296Z,1.27
2019-04-04T20:06:43.726Z,1.20
2019-04-04T20:09:13.700Z,1.16
2019-04-04T20:11:44.228Z,1.17
2019-04-04T20:14:14.980Z,1.12
2019-04-04T20:16:45.041Z,1.07
2019-04-04T20:19:15.553Z,1.03
2019-04-04T20:21:46.534Z,0.96
2019-04-04T20:24:16.972Z,1.00
2019-04-04T20:26:47.727Z,0.93
2019-04-04T20:29:18.373Z,1.20
2019-04-04T20:31:49.541Z,1.40
2019-04-04T20:34:20.176Z,1.40
2019-04-04T20:36:50.948Z,1.29
2019-04-04T20:39:23.032Z,1.21
2019-04-04T20:41:53.479Z,1.24
2019-04-04T20:44:24.231Z,1.20
2019-04-04T20:46:54.886Z,1.09
2019-04-04T20:49:25.722Z,1.09
2019-04-04T20:51:57.619Z,1.05
2019-04-04T20:54:28.575Z,1.04
2019-04-04T20:56:59.328Z,1.06
2019-04-04T20:59:29.981Z,1.06
2019-04-04T21:02:00.821Z,1.07
2019-04-04T21:04:31.574Z,0.98
2019-04-04T21:07:02.138Z,0.91
2019-04-04T21:09:32.896Z,0.56
2019-04-04T21:12:03.545Z,0.33
2019-04-04T21:14:34.281Z,0.48
2019-04-04T21:17:05.155Z,0.50
2019-04-04T21:19:35.789Z,0.33
2019-04-04T21:22:05.764Z,0.36
2019-04-04T21:24:36.292Z,0.34
2019-04-04T21:27:06.932Z,0.30
2019-04-04T21:29:36.891Z,0.27
2019-04-04T21:32:07.415Z,0.42
2019-04-04T21:34:38.064Z,0.49
2019-04-04T21:37:08.242Z,0.49
2019-04-04T21:39:38.648Z,0.47
2019-04-04T21:42:08.828Z,0.48
2019-04-04T21:44:39.354Z,0.44
2019-04-04T21:47:10.176Z,0.37
2019-04-04T21:49:41.056Z,0.24
2019-04-04T21:52:12.639Z,0.19
2019-04-04T21:54:43.495Z,0.13
2019-04-04T21:57:14.149Z,0.09
2019-04-04T21:59:44.984Z,0.01
2019-04-04T22:02:15.863Z,-0.01
2019-04-04T22:04:46.598Z,0.00
2019-04-04T22:07:17.365Z,0.04
2019-04-04T22:09:48.018Z,0.04
2019-04-04T22:12:18.873Z,0.15
2019-04-04T22:14:49.631Z,0.22
2019-04-04T22:17:20.265Z,0.23
2019-04-04T22:19:51.047Z,0.17
2019-04-04T22:22:21.899Z,0.13
2019-04-04T22:24:52.750Z,0.24
2019-04-04T22:27:23.379Z,0.36
2019-04-04T22:29:53.347Z,0.45
2019-04-04T22:32:23.762Z,0.57
2019-04-04T22:34:53.833Z,0.36
2019-04-04T22:37:24.356Z,0.28
2019-04-04T22:39:55.131Z,0.21
2019-04-04T22:42:25.880Z,0.15
2019-04-04T22:44:56.739Z,0.34
2019-04-04T22:47:27.588Z,0.36
2019-04-04T22:49:58.342Z,0.22
2019-04-04T22:52:30.116Z,0.14
2019-04-04T22:55:00.857Z,0.14
2019-04-04T22:57:30.819Z,-0.03
2019-04-04T23:00:01.368Z,-0.30
2019-04-04T23:02:32.116Z,-0.64
2019-04-04T23:05:02.769Z,-0.90
2019-04-04T23:07:33.603Z,-1.06
2019-04-04T23:10:06.577Z,-1.15
2019-04-04T23:12:37.076Z,-1.19
2019-04-04T23:15:11.412Z,-1.23
2019-04-04T23:17:41.859Z,-1.16
2019-04-04T23:20:12.614Z,-1.15
2019-04-04T23:22:52.737Z,-1.13
2019-04-04T23:25:15.451Z,-1.10
2019-04-04T23:27:46.305Z,-0.99
2019-04-04T23:30:17.059Z,-0.96
2019-04-04T23:32:47.702Z,-0.86
2019-04-04T23:35:18.340Z,-0.90
2019-04-04T23:37:49.191Z,-1.13
2019-04-04T23:40:20.071Z,-1.23
2019-04-04T23:42:50.801Z,-1.31
2019-04-04T23:45:21.452Z,-1.31
2019-04-04T23:47:51.534Z,-1.29
2019-04-04T23:50:22.038Z,-1.19
2019-04-04T23:52:52.718Z,-1.01
2019-04-04T23:55:23.445Z,-0.78
2019-04-04T23:57:54.326Z,-0.70
